Time;durP1;ratioP1;P1;durP2;ratioP2;P2;SDS_P1;SDS_P2;PMS_P1;PMS_P2;Temp;Humidity;BMP_temperature;BMP_pressure;BME280_temperature;BME280_humidity;BME280_pressure;Samples;Min_cycle;Max_cycle;Signal;HPM_P1;HPM_P2
2022/12/09 00:02:02;;;;;;;131.90;19.20;;;-0.20;99.90;;;;;;5085277;28;20235;-78
2022/12/09 00:04:28;;;;;;;192.23;20.77;;;-0.20;99.90;;;;;;5077420;28;20225;-78
2022/12/09 00:06:55;;;;;;;232.87;22.87;;;-0.30;99.90;;;;;;5081977;28;20221;-78
2022/12/09 00:09:22;;;;;;;416.97;33.03;;;-0.40;99.90;;;;;;5083795;28;20218;-78
2022/12/09 00:11:51;;;;;;;278.07;22.30;;;-0.50;99.90;;;;;;5099509;28;20287;-78
2022/12/09 00:14:18;;;;;;;237.03;21.60;;;-0.50;99.90;;;;;;5075335;28;20224;-78
2022/12/09 00:16:45;;;;;;;362.53;29.37;;;-0.60;99.90;;;;;;5089288;28;20617;-78
2022/12/09 00:19:14;;;;;;;440.70;32.97;;;-0.70;99.90;;;;;;5077859;28;20317;-78
2022/12/09 00:21:42;;;;;;;266.27;22.40;;;-0.60;99.90;;;;;;5077713;28;20304;-77
2022/12/09 00:24:11;;;;;;;345.07;32.20;;;-0.80;99.90;;;;;;5076154;28;20224;-78
2022/12/09 00:26:38;;;;;;;202.63;20.80;;;-0.90;99.90;;;;;;5077662;28;20230;-78
2022/12/09 00:29:05;;;;;;;190.77;18.87;;;-1.00;99.90;;;;;;5080791;28;20835;-78
2022/12/09 00:31:34;;;;;;;255.40;21.77;;;-1.00;99.90;;;;;;5091061;28;20231;-77
2022/12/09 00:34:03;;;;;;;221.80;22.60;;;-1.10;99.90;;;;;;5101952;28;20228;-77
2022/12/09 00:36:32;;;;;;;231.57;22.20;;;-1.10;99.90;;;;;;5095362;28;20251;-77
2022/12/09 00:38:59;;;;;;;512.07;40.43;;;-1.20;99.90;;;;;;5078258;28;20220;-78
2022/12/09 00:41:27;;;;;;;154.70;19.13;;;-1.20;99.90;;;;;;5103278;28;20583;-77
2022/12/09 00:43:54;;;;;;;181.60;20.00;;;-1.20;99.90;;;;;;5089495;28;20225;-78
2022/12/09 00:46:21;;;;;;;197.87;21.13;;;-1.30;99.90;;;;;;5078381;28;20231;-78
2022/12/09 00:48:48;;;;;;;251.67;25.37;;;-1.30;99.90;;;;;;5079572;28;20345;-78
2022/12/09 00:51:17;;;;;;;172.50;18.70;;;-1.30;99.90;;;;;;5087277;28;20227;-77
2022/12/09 00:53:46;;;;;;;135.73;20.30;;;-1.40;99.90;;;;;;5095759;28;20743;-77
2022/12/09 00:56:13;;;;;;;184.37;20.50;;;-1.40;99.90;;;;;;5083780;28;20659;-78
2022/12/09 00:58:40;;;;;;;109.00;16.80;;;-1.40;99.90;;;;;;5073755;28;20218;-77
2022/12/09 01:01:07;;;;;;;165.57;20.00;;;-1.40;99.90;;;;;;5088268;28;20951;-78
2022/12/09 01:03:34;;;;;;;120.50;18.83;;;-1.40;99.90;;;;;;5079346;28;20277;-77
2022/12/09 01:06:01;;;;;;;284.57;26.20;;;-1.40;99.90;;;;;;5081660;28;21104;-77
2022/12/09 01:08:27;;;;;;;161.33;19.50;;;-1.40;99.90;;;;;;5080302;28;20331;-77
2022/12/09 01:10:56;;;;;;;112.60;17.10;;;-1.30;99.90;;;;;;5093649;27;20224;-77
2022/12/09 01:13:23;;;;;;;108.23;17.20;;;-1.30;99.90;;;;;;5087485;27;20364;-78
2022/12/09 01:15:50;;;;;;;191.83;22.97;;;-1.30;99.90;;;;;;5087690;27;20751;-78
2022/12/09 01:18:17;;;;;;;153.43;19.67;;;-1.30;99.90;;;;;;5088261;27;20246;-77
2022/12/09 01:20:44;;;;;;;171.67;20.27;;;-1.30;99.90;;;;;;5093691;27;20349;-77
2022/12/09 01:23:11;;;;;;;845.47;66.73;;;-1.30;99.90;;;;;;5088376;28;20561;-78
2022/12/09 01:25:38;;;;;;;268.70;27.27;;;-1.30;99.90;;;;;;5079630;28;20229;-77
2022/12/09 01:28:06;;;;;;;107.70;18.57;;;-1.30;99.90;;;;;;5088800;27;20223;-78
2022/12/09 01:30:32;;;;;;;170.20;20.93;;;-1.20;99.90;;;;;;5076386;28;20675;-78
2022/12/09 01:32:59;;;;;;;215.77;23.50;;;-1.20;99.90;;;;;;5089309;27;20232;-78
2022/12/09 01:35:26;;;;;;;117.50;20.67;;;-1.20;99.90;;;;;;5128303;27;21113;-78
2022/12/09 01:37:52;;;;;;;88.63;19.17;;;-1.20;99.90;;;;;;5085084;28;20294;-77
2022/12/09 01:40:19;;;;;;;71.37;18.57;;;-1.20;99.90;;;;;;5083927;28;20225;-77
2022/12/09 01:42:49;;;;;;;231.23;26.63;;;-1.20;99.90;;;;;;5107394;27;20238;-78
2022/12/09 01:45:44;;;;;;;173.20;23.97;;;-1.10;99.90;;;;;;5102002;27;20690;-78
2022/12/09 01:48:13;;;;;;;70.20;19.77;;;-1.10;99.90;;;;;;5055665;28;20638;-78
2022/12/09 01:50:46;;;;;;;190.60;23.97;;;-1.00;99.90;;;;;;5103974;27;20221;-78
2022/12/09 01:53:14;;;;;;;122.13;20.07;;;-1.00;99.90;;;;;;5106583;27;20265;-77
2022/12/09 01:55:41;;;;;;;119.87;21.27;;;-1.00;99.90;;;;;;5101524;27;20698;-77
2022/12/09 01:58:09;;;;;;;118.43;21.80;;;-1.10;99.90;;;;;;5084892;28;20220;-77
2022/12/09 02:00:35;;;;;;;162.80;24.40;;;-1.00;99.90;;;;;;5089631;27;20256;-77
2022/12/09 02:03:06;;;;;;;327.13;34.53;;;-1.00;99.90;;;;;;5100678;28;20217;-77
2022/12/09 02:05:35;;;;;;;164.47;22.93;;;-1.00;99.90;;;;;;5114382;27;20293;-77
2022/12/09 02:08:01;;;;;;;236.73;28.50;;;-1.00;99.90;;;;;;5092270;28;20932;-77
2022/12/09 02:10:29;;;;;;;125.00;23.07;;;-1.10;99.90;;;;;;5080497;28;20308;-77
2022/12/09 02:13:08;;;;;;;100.83;20.60;;;-1.00;99.90;;;;;;5076828;28;20222;-78
2022/12/09 02:15:41;;;;;;;100.67;22.70;;;-1.00;99.90;;;;;;5075791;28;20232;-77
2022/12/09 02:18:18;;;;;;;339.17;33.83;;;-1.00;99.90;;;;;;5123884;27;20301;-77
2022/12/09 02:20:50;;;;;;;159.10;24.30;;;-0.90;99.90;;;;;;5102692;27;20713;-77
2022/12/09 02:23:22;;;;;;;232.17;29.53;;;-0.90;99.90;;;;;;5095037;27;20944;-77
2022/12/09 02:25:56;;;;;;;144.30;24.60;;;-0.90;99.90;;;;;;5095979;27;20358;-77
2022/12/09 02:28:56;;;;;;;111.37;23.37;;;-0.90;99.90;;;;;;5096472;27;20474;-77
2022/12/09 02:31:38;;;;;;;273.43;31.73;;;-0.90;99.90;;;;;;5122250;27;20300;-78
2022/12/09 02:34:15;;;;;;;71.77;19.87;;;-0.90;99.90;;;;;;5093528;28;20215;-78
2022/12/09 02:36:54;;;;;;;150.43;24.93;;;-0.80;99.90;;;;;;5118052;27;20305;-78
2022/12/09 02:39:26;;;;;;;150.70;24.60;;;-0.80;99.90;;;;;;5077661;28;20437;-78
2022/12/09 02:41:54;;;;;;;195.80;29.17;;;-0.80;99.90;;;;;;5085242;28;20236;-78
2022/12/09 02:44:24;;;;;;;105.60;23.57;;;-0.70;99.90;;;;;;5099480;27;20221;-77
2022/12/09 02:46:53;;;;;;;64.87;22.07;;;-0.70;99.90;;;;;;5090586;27;20235;-78
2022/12/09 02:49:25;;;;;;;80.07;21.43;;;-0.70;99.90;;;;;;5080361;28;20217;-78
2022/12/09 02:51:53;;;;;;;55.33;20.73;;;-0.70;99.90;;;;;;5085416;28;20320;-78
2022/12/09 02:54:23;;;;;;;59.57;19.97;;;-0.60;99.90;;;;;;5079822;28;20800;-78
2022/12/09 02:56:56;;;;;;;52.00;20.07;;;-0.60;99.90;;;;;;5080829;28;20224;-78
2022/12/09 02:59:24;;;;;;;83.57;21.03;;;-0.60;99.90;;;;;;5075412;28;20228;-78
2022/12/09 03:02:00;;;;;;;109.87;23.17;;;-0.50;99.90;;;;;;5078661;28;20324;-78
2022/12/09 03:04:30;;;;;;;64.47;21.00;;;-0.50;99.90;;;;;;5086886;27;20358;-78
2022/12/09 03:07:07;;;;;;;44.63;19.07;;;-0.50;99.90;;;;;;5094942;27;20375;-78
2022/12/09 03:09:40;;;;;;;158.63;25.20;;;-0.50;99.90;;;;;;5082297;27;20435;-77
2022/12/09 03:12:09;;;;;;;42.53;19.60;;;-0.50;99.90;;;;;;5082541;28;20215;-78
2022/12/09 03:14:40;;;;;;;56.70;20.37;;;-0.50;99.90;;;;;;5093324;28;20219;-77
2022/12/09 03:17:12;;;;;;;82.07;22.33;;;-0.50;99.90;;;;;;5093751;28;20278;-77
2022/12/09 03:19:46;;;;;;;75.20;22.17;;;-0.50;99.90;;;;;;5097274;27;20222;-77
2022/12/09 03:22:17;;;;;;;405.37;42.70;;;-0.50;99.90;;;;;;5107053;27;20264;-78
2022/12/09 03:24:48;;;;;;;50.73;21.70;;;-0.50;99.90;;;;;;5091207;28;20244;-78
2022/12/09 03:27:20;;;;;;;45.13;20.60;;;-0.50;99.90;;;;;;5099692;27;20808;-78
2022/12/09 03:29:49;;;;;;;88.17;23.47;;;-0.40;99.90;;;;;;5100906;27;20213;-78
2022/12/09 03:32:19;;;;;;;58.50;21.03;;;-0.40;99.90;;;;;;5083102;28;20226;-78
2022/12/09 03:34:49;;;;;;;95.50;23.87;;;-0.40;99.90;;;;;;5084205;28;20832;-78
2022/12/09 03:37:18;;;;;;;47.30;19.93;;;-0.40;99.90;;;;;;5097925;28;20229;-78
2022/12/09 03:39:47;;;;;;;40.17;18.60;;;-0.30;99.90;;;;;;5093505;27;20216;-78
2022/12/09 03:42:19;;;;;;;40.43;19.50;;;-0.30;99.90;;;;;;5093028;28;20781;-78
2022/12/09 03:44:50;;;;;;;37.60;18.67;;;-0.30;99.90;;;;;;5089987;28;20314;-78
2022/12/09 03:47:16;;;;;;;35.23;19.50;;;-0.20;99.90;;;;;;5073229;28;20218;-78
2022/12/09 03:49:43;;;;;;;37.27;19.83;;;-0.20;99.90;;;;;;5110138;27;20217;-78
2022/12/09 03:52:16;;;;;;;37.83;19.27;;;-0.20;99.90;;;;;;5081422;28;20223;-78
2022/12/09 03:54:44;;;;;;;41.30;19.60;;;-0.10;99.90;;;;;;5087978;28;20229;-78
2022/12/09 03:57:13;;;;;;;36.13;19.30;;;-0.10;99.90;;;;;;5075864;28;20221;-78
2022/12/09 03:59:40;;;;;;;39.33;19.90;;;-0.10;99.90;;;;;;5083879;28;20212;-77
2022/12/09 04:02:08;;;;;;;39.43;20.03;;;0.00;99.90;;;;;;5084627;28;20289;-78
2022/12/09 04:04:34;;;;;;;37.17;18.67;;;0.00;99.90;;;;;;5086638;27;20308;-78
2022/12/09 04:07:02;;;;;;;38.43;19.37;;;0.00;99.90;;;;;;5077277;28;20322;-78
2022/12/09 04:09:30;;;;;;;47.30;19.90;;;0.00;99.90;;;;;;5104300;27;20308;-79
2022/12/09 04:11:57;;;;;;;35.80;19.00;;;0.00;99.90;;;;;;5105632;27;20210;-79
2022/12/09 04:14:23;;;;;;;36.47;19.77;;;0.10;99.90;;;;;;5079386;27;20387;-79
2022/12/09 04:16:50;;;;;;;39.63;19.13;;;0.10;99.90;;;;;;5095381;28;20266;-79
2022/12/09 04:19:17;;;;;;;37.90;18.37;;;0.10;99.90;;;;;;5096092;28;20214;-80
2022/12/09 04:21:45;;;;;;;36.60;18.23;;;0.10;99.90;;;;;;5073742;28;20226;-78
2022/12/09 04:24:11;;;;;;;34.63;18.33;;;0.10;99.90;;;;;;5087267;28;20669;-78
2022/12/09 04:26:40;;;;;;;30.30;17.87;;;0.10;99.90;;;;;;5082900;28;20230;-79
2022/12/09 04:29:07;;;;;;;38.43;18.67;;;0.20;99.90;;;;;;5096130;28;20212;-79
2022/12/09 04:31:33;;;;;;;35.77;17.10;;;0.20;99.90;;;;;;5079339;28;20628;-79
2022/12/09 04:34:01;;;;;;;30.70;16.73;;;0.10;99.90;;;;;;5095798;28;20963;-78
2022/12/09 04:36:27;;;;;;;45.10;16.93;;;0.10;99.90;;;;;;5087087;28;20224;-77
2022/12/09 04:38:54;;;;;;;32.17;18.17;;;0.10;99.90;;;;;;5100780;27;20222;-78
2022/12/09 04:41:21;;;;;;;32.73;16.90;;;0.10;99.90;;;;;;5106294;27;20224;-77
2022/12/09 04:43:50;;;;;;;57.73;18.77;;;0.10;99.90;;;;;;5105320;27;20298;-77
2022/12/09 04:46:18;;;;;;;29.77;15.23;;;0.00;99.90;;;;;;5103596;28;20218;-77
2022/12/09 04:48:45;;;;;;;34.20;17.77;;;0.00;99.90;;;;;;5106698;27;20230;-78
2022/12/09 04:51:13;;;;;;;34.17;17.03;;;0.00;99.90;;;;;;5094421;27;20210;-78
2022/12/09 04:53:40;;;;;;;37.00;16.93;;;-0.10;99.90;;;;;;5082327;28;20757;-78
2022/12/09 04:56:10;;;;;;;33.53;17.10;;;-0.10;99.90;;;;;;5096003;28;20222;-78
2022/12/09 04:58:38;;;;;;;42.77;17.47;;;-0.10;99.90;;;;;;5096094;28;20227;-78
2022/12/09 05:01:07;;;;;;;30.73;17.17;;;-0.20;99.90;;;;;;5102722;28;20409;-78
2022/12/09 05:03:35;;;;;;;32.80;17.67;;;-0.20;99.90;;;;;;5093447;28;20219;-79
2022/12/09 05:06:04;;;;;;;31.80;16.20;;;-0.30;99.90;;;;;;5099672;27;20231;-78
2022/12/09 05:08:31;;;;;;;32.93;15.87;;;-0.30;99.90;;;;;;5107146;27;20233;-78
2022/12/09 05:10:59;;;;;;;27.70;15.60;;;-0.40;99.90;;;;;;5099072;28;20832;-78
2022/12/09 05:13:26;;;;;;;31.07;16.30;;;-0.40;99.90;;;;;;5099082;28;20270;-79
2022/12/09 05:15:53;;;;;;;39.87;18.37;;;-0.50;99.90;;;;;;5090833;28;20233;-79
2022/12/09 05:18:21;;;;;;;34.87;18.40;;;-0.50;99.90;;;;;;5103924;27;20217;-79
2022/12/09 05:20:48;;;;;;;37.00;18.90;;;-0.70;99.90;;;;;;5093793;27;20218;-78
2022/12/09 05:23:15;;;;;;;32.17;16.73;;;-0.70;99.90;;;;;;5095705;27;20685;-80
2022/12/09 05:25:41;;;;;;;34.87;17.97;;;-0.70;99.90;;;;;;5078510;28;20234;-79
2022/12/09 05:28:08;;;;;;;34.47;18.20;;;-0.80;99.90;;;;;;5076705;28;20218;-79
2022/12/09 05:30:37;;;;;;;39.33;18.57;;;-0.80;99.90;;;;;;5074948;28;20726;-79
2022/12/09 05:33:04;;;;;;;31.00;17.43;;;-0.90;99.90;;;;;;5072468;28;20225;-80
2022/12/09 05:35:32;;;;;;;37.37;19.93;;;-0.90;99.90;;;;;;5088655;27;20238;-78
2022/12/09 05:37:59;;;;;;;35.67;19.23;;;-1.00;99.90;;;;;;5117205;27;20888;-79
2022/12/09 05:40:25;;;;;;;41.10;20.83;;;-1.00;99.90;;;;;;5087911;28;20778;-79
2022/12/09 05:42:52;;;;;;;35.87;18.17;;;-1.00;99.90;;;;;;5080486;28;20310;-79
2022/12/09 05:45:19;;;;;;;36.57;19.47;;;-1.00;99.90;;;;;;5098658;27;20226;-78
2022/12/09 05:47:46;;;;;;;37.07;18.33;;;-1.00;99.90;;;;;;5079974;28;20222;-77
2022/12/09 05:50:13;;;;;;;37.77;20.53;;;-1.00;99.90;;;;;;5089828;27;20298;-77
2022/12/09 05:52:41;;;;;;;35.37;19.70;;;-0.90;99.90;;;;;;5081781;28;20222;-78
2022/12/09 05:55:09;;;;;;;38.27;20.40;;;-0.90;99.90;;;;;;5085320;28;20930;-78
2022/12/09 05:57:36;;;;;;;53.97;21.90;;;-0.80;99.90;;;;;;5075775;28;20293;-78
2022/12/09 06:00:04;;;;;;;42.57;22.73;;;-0.80;99.90;;;;;;5078382;28;20231;-78
2022/12/09 06:02:38;;;;;;;43.83;22.87;;;-0.80;99.90;;;;;;5077367;28;20233;-78
2022/12/09 06:05:06;;;;;;;40.63;22.10;;;-0.70;99.90;;;;;;5073953;28;20793;-78
2022/12/09 06:07:33;;;;;;;38.37;20.63;;;-0.70;99.90;;;;;;5083275;28;20897;-79
2022/12/09 06:10:01;;;;;;;42.83;23.43;;;-0.60;99.90;;;;;;5071412;28;20233;-78
2022/12/09 06:12:28;;;;;;;50.13;24.10;;;-0.60;99.90;;;;;;5089275;28;20871;-79
2022/12/09 06:14:55;;;;;;;88.20;35.50;;;-0.60;99.90;;;;;;5089901;28;20950;-79
2022/12/09 06:17:22;;;;;;;45.33;26.37;;;-0.50;99.90;;;;;;5082969;27;20221;-81
2022/12/09 06:19:49;;;;;;;47.17;25.90;;;-0.50;99.90;;;;;;5105792;27;20229;-80
2022/12/09 06:22:16;;;;;;;45.17;25.07;;;-0.40;99.90;;;;;;5104314;27;20734;-80
2022/12/09 06:24:43;;;;;;;42.53;24.33;;;-0.40;99.90;;;;;;5101792;27;20282;-78
2022/12/09 06:27:11;;;;;;;40.43;22.57;;;-0.40;99.90;;;;;;5100212;27;20646;-79
2022/12/09 06:29:38;;;;;;;68.77;25.80;;;-0.40;99.90;;;;;;5096758;27;20810;-78
2022/12/09 06:32:05;;;;;;;42.13;22.63;;;-0.30;99.90;;;;;;5098250;27;20275;-78
2022/12/09 06:34:31;;;;;;;46.73;29.30;;;-0.30;99.90;;;;;;5094898;28;20773;-79
2022/12/09 06:36:58;;;;;;;41.40;24.93;;;-0.20;99.90;;;;;;5088002;27;20852;-77
2022/12/09 06:39:25;;;;;;;43.90;24.53;;;-0.20;99.90;;;;;;5088316;28;20746;-77
2022/12/09 06:41:52;;;;;;;43.83;25.83;;;-0.20;99.90;;;;;;5097167;27;20614;-79
2022/12/09 06:44:20;;;;;;;42.07;26.30;;;-0.20;99.90;;;;;;5070405;28;20224;-78
2022/12/09 06:46:46;;;;;;;42.77;24.40;;;-0.10;99.90;;;;;;5084884;28;20813;-78
2022/12/09 06:49:13;;;;;;;46.13;25.50;;;-0.10;99.90;;;;;;5078977;28;20782;-79
2022/12/09 06:51:40;;;;;;;69.50;26.67;;;-0.10;99.90;;;;;;5077109;28;20227;-78
2022/12/09 06:54:09;;;;;;;71.47;26.27;;;-0.10;99.90;;;;;;5092714;27;20252;-78
2022/12/09 06:56:36;;;;;;;54.40;24.07;;;-0.10;99.90;;;;;;5098722;27;20228;-79
2022/12/09 06:59:06;;;;;;;44.20;23.70;;;-0.10;99.90;;;;;;5074190;28;20604;-79
2022/12/09 07:01:35;;;;;;;116.77;29.00;;;-0.10;99.90;;;;;;5101031;27;20305;-79
2022/12/09 07:04:03;;;;;;;131.83;29.80;;;-0.10;99.90;;;;;;5115101;27;20831;-79
2022/12/09 07:06:31;;;;;;;48.03;23.97;;;-0.10;99.90;;;;;;5105638;27;20229;-79
2022/12/09 07:09:00;;;;;;;45.60;24.67;;;-0.10;99.90;;;;;;5094482;28;20214;-80
2022/12/09 07:11:27;;;;;;;79.57;25.53;;;-0.10;99.90;;;;;;5104564;27;20224;-80
2022/12/09 07:13:54;;;;;;;71.83;26.33;;;-0.10;99.90;;;;;;5085152;28;20219;-79
2022/12/09 07:16:20;;;;;;;46.23;23.83;;;-0.10;99.90;;;;;;5089588;28;20219;-80
2022/12/09 07:18:49;;;;;;;61.20;25.33;;;-0.10;99.90;;;;;;5081316;28;20223;-79
2022/12/09 07:21:18;;;;;;;48.93;23.57;;;-0.10;99.90;;;;;;5081315;28;20215;-79
2022/12/09 07:23:46;;;;;;;90.53;26.13;;;-0.20;99.90;;;;;;5085128;28;20226;-79
2022/12/09 07:26:13;;;;;;;43.13;22.63;;;-0.10;99.90;;;;;;5088153;27;20232;-79
2022/12/09 07:28:41;;;;;;;58.17;23.10;;;-0.10;99.90;;;;;;5080236;28;20314;-80
2022/12/09 07:31:17;;;;;;;40.43;21.93;;;-0.20;99.90;;;;;;5081227;28;20218;-80
2022/12/09 07:33:44;;;;;;;43.07;21.70;;;-0.20;99.90;;;;;;5080432;28;20295;-79
2022/12/09 07:36:12;;;;;;;40.97;23.00;;;-0.10;99.90;;;;;;5101349;28;20550;-79
2022/12/09 07:38:39;;;;;;;78.13;25.70;;;-0.20;99.90;;;;;;5098645;28;20447;-80
2022/12/09 07:41:06;;;;;;;43.83;21.93;;;-0.10;99.90;;;;;;5104092;27;20213;-79
2022/12/09 07:43:33;;;;;;;40.50;22.60;;;-0.20;99.90;;;;;;5094635;28;21098;-79
2022/12/09 07:46:06;;;;;;;39.60;20.67;;;-0.20;99.90;;;;;;5084983;28;20257;-79
2022/12/09 07:48:32;;;;;;;40.40;21.63;;;-0.20;99.90;;;;;;5103397;27;20232;-79
2022/12/09 07:51:00;;;;;;;38.40;21.37;;;-0.10;99.90;;;;;;5087894;27;20772;-79
2022/12/09 07:53:28;;;;;;;59.13;23.37;;;-0.10;99.90;;;;;;5090522;27;20225;-80
2022/12/09 07:55:55;;;;;;;61.03;24.87;;;-0.10;99.90;;;;;;5080094;28;20233;-80
2022/12/09 07:58:22;;;;;;;79.00;22.90;;;-0.10;99.90;;;;;;5098590;27;20645;-79
2022/12/09 08:00:48;;;;;;;49.17;21.33;;;-0.20;99.90;;;;;;5091671;28;20423;-79
2022/12/09 08:03:15;;;;;;;42.37;21.33;;;-0.20;99.90;;;;;;5087354;28;20462;-79
2022/12/09 08:05:47;;;;;;;40.93;22.33;;;-0.20;99.90;;;;;;5089662;28;20316;-80
2022/12/09 08:08:17;;;;;;;40.97;21.50;;;-0.20;99.90;;;;;;5077348;28;20218;-80
2022/12/09 08:10:46;;;;;;;34.87;20.83;;;-0.20;99.90;;;;;;5083696;28;20223;-80
2022/12/09 08:13:12;;;;;;;40.23;20.43;;;-0.10;99.90;;;;;;5094102;27;20214;-80
2022/12/09 08:15:39;;;;;;;83.17;23.60;;;-0.10;99.90;;;;;;5079259;28;20218;-79
2022/12/09 08:18:06;;;;;;;40.00;20.13;;;-0.10;99.90;;;;;;5122763;27;20499;-81
2022/12/09 08:20:33;;;;;;;40.07;21.30;;;-0.10;99.90;;;;;;5097593;27;20599;-80
2022/12/09 08:22:59;;;;;;;39.93;20.73;;;-0.10;99.90;;;;;;5092220;28;20229;-79
2022/12/09 08:25:26;;;;;;;40.57;20.17;;;-0.10;99.90;;;;;;5084022;28;20228;-79
2022/12/09 08:27:54;;;;;;;33.50;20.47;;;-0.10;99.90;;;;;;5096264;28;20225;-80
2022/12/09 08:30:21;;;;;;;34.27;19.30;;;-0.10;99.90;;;;;;5087587;28;20253;-80
2022/12/09 08:32:47;;;;;;;30.63;18.30;;;0.00;99.90;;;;;;5085264;28;20261;-80
2022/12/09 08:35:14;;;;;;;31.03;18.03;;;0.00;99.90;;;;;;5104134;27;20230;-79
2022/12/09 08:37:41;;;;;;;49.20;19.57;;;0.00;99.90;;;;;;5092332;28;20724;-80
2022/12/09 08:40:09;;;;;;;30.77;17.70;;;0.00;99.90;;;;;;5087611;27;20229;-80
2022/12/09 08:42:35;;;;;;;33.17;17.60;;;0.00;99.90;;;;;;5080778;28;20236;-79
2022/12/09 08:45:04;;;;;;;32.47;17.80;;;0.00;99.90;;;;;;5080940;28;20225;-78
2022/12/09 08:47:31;;;;;;;41.73;18.27;;;0.00;99.90;;;;;;5092379;28;20229;-78
2022/12/09 08:50:00;;;;;;;34.40;18.47;;;0.00;99.90;;;;;;5089826;27;20327;-77
2022/12/09 08:52:27;;;;;;;32.77;17.90;;;0.00;99.90;;;;;;5079594;28;20675;-78
2022/12/09 08:54:53;;;;;;;37.60;18.57;;;0.00;99.90;;;;;;5121690;27;20216;-78
2022/12/09 08:57:22;;;;;;;61.20;17.80;;;0.00;99.90;;;;;;5084184;28;20218;-78
2022/12/09 08:59:49;;;;;;;35.17;18.83;;;0.00;99.90;;;;;;5090499;27;20229;-78
2022/12/09 09:02:17;;;;;;;32.93;17.90;;;0.00;99.90;;;;;;5086170;28;20322;-78
2022/12/09 09:04:44;;;;;;;53.93;19.30;;;0.00;99.90;;;;;;5090501;28;20799;-78
2022/12/09 09:07:11;;;;;;;31.33;17.23;;;0.00;99.90;;;;;;5085138;28;20407;-78
2022/12/09 09:09:38;;;;;;;26.30;16.60;;;0.00;99.90;;;;;;5087187;28;20839;-78
2022/12/09 09:12:05;;;;;;;26.50;16.33;;;0.00;99.90;;;;;;5089080;27;20226;-79
2022/12/09 09:14:32;;;;;;;30.80;16.57;;;0.00;99.90;;;;;;5091344;28;20216;-78
2022/12/09 09:16:58;;;;;;;27.53;16.30;;;0.00;99.90;;;;;;5096880;27;20285;-78
2022/12/09 09:19:28;;;;;;;26.33;16.07;;;0.00;99.90;;;;;;5091619;27;20501;-78
2022/12/09 09:21:55;;;;;;;27.60;15.70;;;0.00;99.90;;;;;;5090496;28;20323;-78
2022/12/09 09:24:24;;;;;;;26.43;17.07;;;0.00;99.90;;;;;;5102202;28;20238;-78
2022/12/09 09:26:51;;;;;;;29.53;16.13;;;0.10;99.90;;;;;;5105855;28;20335;-78
2022/12/09 09:29:20;;;;;;;38.57;18.23;;;0.10;99.90;;;;;;5083822;28;20929;-77
2022/12/09 09:31:48;;;;;;;28.27;15.90;;;0.10;99.90;;;;;;5079304;28;20234;-78
2022/12/09 09:34:16;;;;;;;31.30;17.40;;;0.20;99.90;;;;;;5077875;28;20227;-78
2022/12/09 09:36:44;;;;;;;28.73;16.40;;;0.20;99.90;;;;;;5091063;28;20280;-78
2022/12/09 09:39:11;;;;;;;28.07;17.27;;;0.30;99.90;;;;;;5100944;27;20230;-78
2022/12/09 09:41:49;;;;;;;28.30;16.47;;;0.40;99.90;;;;;;5095526;27;20320;-79
2022/12/09 09:44:23;;;;;;;24.60;15.60;;;0.40;99.90;;;;;;5079616;28;20216;-78
2022/12/09 09:46:52;;;;;;;26.97;15.70;;;0.50;99.90;;;;;;5092653;28;20624;-78
2022/12/09 09:49:24;;;;;;;33.63;16.57;;;0.60;99.90;;;;;;5098128;28;20311;-78
2022/12/09 09:51:52;;;;;;;27.83;17.43;;;0.80;99.90;;;;;;5075348;28;20241;-77
2022/12/09 09:54:19;;;;;;;26.93;16.03;;;0.90;99.90;;;;;;5072912;28;20264;-78
2022/12/09 09:56:53;;;;;;;25.40;14.37;;;1.10;99.90;;;;;;5078332;28;20232;-78
2022/12/09 09:59:30;;;;;;;20.63;14.23;;;1.20;99.90;;;;;;5086545;28;20214;-78
2022/12/09 10:02:03;;;;;;;22.97;15.03;;;1.20;99.90;;;;;;5089167;27;20218;-79
2022/12/09 10:04:40;;;;;;;27.03;15.47;;;1.30;99.90;;;;;;5104398;27;20229;-79
2022/12/09 10:07:15;;;;;;;25.63;15.40;;;1.30;99.90;;;;;;5093564;28;20230;-80
2022/12/09 10:09:48;;;;;;;22.87;14.90;;;1.30;99.90;;;;;;5098797;28;20225;-79
2022/12/09 10:12:21;;;;;;;26.93;15.27;;;1.30;99.90;;;;;;5083398;28;20221;-79
2022/12/09 10:14:55;;;;;;;24.20;14.37;;;1.30;99.90;;;;;;5079245;27;20233;-79
2022/12/09 10:17:27;;;;;;;25.13;14.83;;;1.30;99.90;;;;;;5098428;28;20214;-79
2022/12/09 10:19:57;;;;;;;25.30;14.13;;;1.30;99.90;;;;;;5092953;28;20234;-78
2022/12/09 10:22:29;;;;;;;23.77;13.93;;;1.30;99.90;;;;;;5100593;27;20255;-78
2022/12/09 10:24:58;;;;;;;23.63;15.10;;;1.30;99.90;;;;;;5082402;28;20849;-78
2022/12/09 10:27:30;;;;;;;19.93;13.53;;;1.30;99.90;;;;;;5092335;28;20221;-78
2022/12/09 10:30:00;;;;;;;25.47;15.20;;;1.20;99.90;;;;;;5081392;28;20236;-77
2022/12/09 10:32:29;;;;;;;23.47;14.83;;;1.20;99.90;;;;;;5084832;28;20223;-77
2022/12/09 10:34:57;;;;;;;26.47;14.37;;;1.30;99.90;;;;;;5111800;27;20223;-78
2022/12/09 10:37:29;;;;;;;24.00;14.40;;;1.30;99.90;;;;;;5096740;27;20712;-78
2022/12/09 10:40:02;;;;;;;22.97;14.50;;;1.20;99.90;;;;;;5092720;28;20608;-78
2022/12/09 10:45:15;;;;;;;24.80;13.87;;;1.30;99.90;;;;;;5109056;27;21209;-78
2022/12/09 10:47:49;;;;;;;23.20;13.73;;;1.30;99.90;;;;;;5105050;27;20232;-78
2022/12/09 10:50:29;;;;;;;22.07;14.40;;;1.30;99.90;;;;;;5106188;27;20219;-78
2022/12/09 10:52:58;;;;;;;22.43;14.47;;;1.30;99.90;;;;;;5103689;28;20233;-78
2022/12/09 10:55:31;;;;;;;26.30;15.07;;;1.30;99.90;;;;;;5102451;27;20230;-78
2022/12/09 10:58:15;;;;;;;22.47;14.43;;;1.30;99.90;;;;;;5104125;27;20241;-78
2022/12/09 11:00:42;;;;;;;21.77;14.63;;;1.30;99.90;;;;;;5073660;28;20222;-77
2022/12/09 11:03:25;;;;;;;24.83;13.90;;;1.30;99.90;;;;;;5088891;27;20240;-78
2022/12/09 11:06:00;;;;;;;21.47;13.80;;;1.30;99.90;;;;;;5087242;28;20240;-78
2022/12/09 11:08:29;;;;;;;22.87;13.97;;;1.30;99.90;;;;;;5080949;28;20290;-78
2022/12/09 11:10:56;;;;;;;22.57;13.77;;;1.30;99.90;;;;;;5083161;28;20229;-79
2022/12/09 11:13:33;;;;;;;21.50;13.00;;;1.30;99.90;;;;;;5096893;28;20244;-78
2022/12/09 11:16:03;;;;;;;23.40;13.97;;;1.30;99.90;;;;;;5081587;28;20221;-78
2022/12/09 11:18:34;;;;;;;21.33;14.13;;;1.30;99.90;;;;;;5076407;28;20229;-78
2022/12/09 11:21:03;;;;;;;22.67;13.30;;;1.30;99.90;;;;;;5084250;28;20224;-78
2022/12/09 11:23:32;;;;;;;22.70;13.70;;;1.20;99.90;;;;;;5086079;28;20240;-78
2022/12/09 11:26:01;;;;;;;19.93;13.03;;;1.20;99.90;;;;;;5087142;28;20240;-78
2022/12/09 11:28:30;;;;;;;20.13;12.50;;;1.20;99.90;;;;;;5103223;28;20274;-78
2022/12/09 11:30:59;;;;;;;19.33;12.77;;;1.10;99.90;;;;;;5089486;28;20236;-78
2022/12/09 11:33:29;;;;;;;19.37;12.87;;;1.10;99.90;;;;;;5087885;28;20215;-78
2022/12/09 11:36:02;;;;;;;21.83;13.90;;;1.10;99.90;;;;;;5083397;28;20228;-78
2022/12/09 11:38:35;;;;;;;20.23;13.77;;;1.10;99.90;;;;;;5087995;27;20223;-78
2022/12/09 11:42:12;;;;;;;21.07;13.57;;;1.10;99.90;;;;;;5099027;28;20229;-78
2022/12/09 11:44:21;;;;;;;20.37;12.53;;;1.10;99.90;;;;;;5100024;27;20579;-78
2022/12/09 11:46:55;;;;;;;20.17;13.33;;;1.20;99.90;;;;;;5086245;28;20750;-78
2022/12/09 11:49:22;;;;;;;20.07;12.47;;;1.20;99.90;;;;;;5102778;28;20220;-78
2022/12/09 11:52:01;;;;;;;20.90;13.23;;;1.30;99.90;;;;;;5100571;28;20227;-78
2022/12/09 11:54:35;;;;;;;24.20;14.27;;;1.30;99.90;;;;;;5093237;28;20229;-78
2022/12/09 11:57:05;;;;;;;20.77;13.10;;;1.40;99.90;;;;;;5074013;28;20233;-78
2022/12/09 11:59:40;;;;;;;22.27;13.90;;;1.40;99.90;;;;;;5096898;28;20750;-78
2022/12/09 12:02:26;;;;;;;21.50;13.70;;;1.40;99.90;;;;;;5108124;28;20212;-79
2022/12/09 12:04:57;;;;;;;19.40;13.07;;;1.50;99.90;;;;;;5101821;28;20230;-78
2022/12/09 12:07:32;;;;;;;20.90;13.23;;;1.50;99.90;;;;;;5101086;28;20682;-78
2022/12/09 12:10:01;;;;;;;21.63;13.50;;;1.50;99.90;;;;;;5095681;28;20713;-78
2022/12/09 12:12:35;;;;;;;18.67;12.50;;;1.50;99.90;;;;;;5101181;28;20782;-78
2022/12/09 12:15:12;;;;;;;22.80;13.23;;;1.50;99.90;;;;;;5094348;28;20242;-78
2022/12/09 12:17:42;;;;;;;22.70;13.67;;;1.50;99.90;;;;;;5105236;28;20227;-79
2022/12/09 12:20:12;;;;;;;19.60;12.93;;;1.50;99.90;;;;;;5079511;28;20217;-79
2022/12/09 12:23:10;;;;;;;21.60;13.80;;;1.50;99.90;;;;;;5075077;28;20230;-78
2022/12/09 12:25:54;;;;;;;21.73;14.10;;;1.60;99.90;;;;;;5081740;28;20607;-79
2022/12/09 12:28:48;;;;;;;21.37;13.20;;;1.60;99.90;;;;;;5070328;28;20234;-78
2022/12/09 12:31:38;;;;;;;21.90;13.80;;;1.60;99.90;;;;;;5074445;28;20225;-79
2022/12/09 12:34:15;;;;;;;22.33;14.60;;;1.60;99.90;;;;;;5084497;28;20218;-79
2022/12/09 12:36:48;;;;;;;22.93;14.00;;;1.60;99.90;;;;;;5084743;28;20668;-79
2022/12/09 12:39:30;;;;;;;20.47;13.57;;;1.60;99.90;;;;;;5097763;28;20820;-81
2022/12/09 12:42:09;;;;;;;24.90;14.73;;;1.60;99.90;;;;;;5091471;28;20317;-79
2022/12/09 12:47:38;;;;;;;24.77;13.80;;;1.50;99.90;;;;;;5094083;28;20223;-79